LOWILIPB

Guest
Details From LOWI - Innsbruck Kranebitten
To LIPB - Bolzano
Flight Number -
Tags Generated
Created
Modified
Stats Distance 48 nm / 89 km
Max Altitude 0 ft / 0 m
Waypoints 2
Social Downloads 9
Likes 0
Share VATSIM

Download

Looking for another format? Having issues loading an existing format? Contact us
Advertisement - Login to hide

Notes

Generated

Route

LOWI LIPB

ID Type Via Altitude Latitude Longitude Leg Dist Tot Dist Heading (true) Name
O LOWI APT - 0 ft / 0 m 47.25883˚ 11.33091˚ - 0 nm - -
O LIPB APT - 0 ft / 0 m 46.45463˚ 11.32653˚ 48 nm 48 nm 180° / 180° -

Altitude Profile

Advertisement - Login to hide

LOWI

Details ICAO LOWI (INN)
Name Innsbruck Kranebitten
Region Austria
Timezone Europe/Vienna (UTC+2.0)
Stats Elevation 1,906 ft / 581 m (AMSL)
Location 47.260226° 11.343967°
Runways 1
Magnetic Variation 3.072° E

METAR

LOWI 262150Z AUTO 23003KT 160V270 9999 BKN090 19/13 Q1022

Decode

TAF

TAF LOWI 261715Z 2618/2718 09007KT 9999 SCT070 TX28/2713Z TN14/2704Z BECMG 2618/2620 27004KT CAVOK BECMG 2709/2711 09006KT 9999 FEW070 TEMPO 2714/2718 09013KT SCT070 FEW070CB PROB30 TEMPO 2714/2718 VRB15G25KT TSRA SCT060CB BKN080

Decode

Departure Runways

ID Width Length Bearing (true) Bearing (mag) Surface Threshold Offset Overrun Length
08 148 ft / 45 m 6,545 ft / 1,995 m 81.02° 77.95° Asphalt 338 ft / 103 m 0 ft / 0 m
26 148 ft / 45 m 6,545 ft / 1,995 m 261.04° 257.97° Asphalt 0 ft / 0 m 0 ft / 0 m

LIPB

Details ICAO LIPB (BZO)
Name BOLZANO
Region Italy
Timezone Europe/Rome (UTC+2.0)
Stats Elevation 789 ft / 240 m (AMSL)
Location 46.458906° 11.326862°
Runways 2
Magnetic Variation 3.043° E

METAR

LIPB 262050Z 16004KT 130V190 9999 SCT100 24/15 Q1019

Decode

TAF

TAF LIPB 262108Z 2618/2718 CNL

Decode

Destination Runways

ID Width Length Bearing (true) Bearing (mag) Surface Threshold Offset Overrun Length
01 98 ft / 30 m 4,257 ft / 1,297 m 10.21° 7.17° Asphalt 0 ft / 0 m 0 ft / 0 m
01R 66 ft / 20 m 2,292 ft / 698 m 10.57° 7.53° Grass 0 ft / 0 m 0 ft / 0 m
19 98 ft / 30 m 4,257 ft / 1,297 m 190.22° 187.18° Asphalt 200 ft / 61 m 0 ft / 0 m
19L 66 ft / 20 m 2,292 ft / 698 m 190.58° 187.54° Grass 0 ft / 0 m 0 ft / 0 m

Approach Navaids

Runway Type Ident Frequency Range Bearing (true) Bearing (mag) Slope Elevation
01 Localiser IBZ 109.10 MHz 18 nm / 33 km 18.82° 15.77° - 789 ft / 240 m (AMSL)
01 DME IBZ 109.10 MHz 18 nm / 33 km - - - 789 ft / 240 m (AMSL)

Popular Alternatives